Time;durP1;ratioP1;P1;durP2;ratioP2;P2;SDS_P1;SDS_P2;PMS_P1;PMS_P2;Temp;Humidity;BMP_temperature;BMP_pressure;BME280_temperature;BME280_humidity;BME280_pressure;Samples;Min_cycle;Max_cycle;Signal;HPM_P1;HPM_P2
2024/03/26 00:01:41;;;;;;;16.30;3.70;;;11.00;99.90;;;;;;5086482;28;20020;-66
2024/03/26 00:04:06;;;;;;;14.70;3.40;;;11.00;99.90;;;;;;5089022;28;20091;-65
2024/03/26 00:06:32;;;;;;;16.47;3.20;;;11.00;99.90;;;;;;5089300;28;20062;-65
2024/03/26 00:08:57;;;;;;;13.40;3.70;;;11.00;99.90;;;;;;5088711;28;20050;-64
2024/03/26 00:11:24;;;;;;;13.73;3.40;;;11.00;99.90;;;;;;5089047;28;20107;-64
2024/03/26 00:13:49;;;;;;;12.57;2.72;;;11.00;99.90;;;;;;5088653;28;20028;-64
2024/03/26 00:16:15;;;;;;;14.10;3.07;;;10.90;99.90;;;;;;5079472;28;20110;-62
2024/03/26 00:18:40;;;;;;;18.53;4.20;;;11.00;99.90;;;;;;5078997;28;20439;-63
2024/03/26 00:21:06;;;;;;;15.93;3.10;;;11.00;99.90;;;;;;5084696;28;20102;-64
2024/03/26 00:23:32;;;;;;;8.87;2.93;;;11.00;99.90;;;;;;5080900;28;20024;-65
2024/03/26 00:25:57;;;;;;;8.73;2.70;;;11.00;99.90;;;;;;5078474;28;20034;-64
2024/03/26 00:28:23;;;;;;;17.67;3.37;;;10.90;99.90;;;;;;5086750;28;20648;-63
2024/03/26 00:30:49;;;;;;;9.00;2.67;;;10.90;99.90;;;;;;5075554;28;20106;-64
2024/03/26 00:33:14;;;;;;;8.77;3.00;;;11.00;99.90;;;;;;5080658;28;20089;-69
2024/03/26 00:35:40;;;;;;;11.90;3.17;;;11.00;99.90;;;;;;5084120;28;20046;-64
2024/03/26 00:38:06;;;;;;;10.13;2.70;;;10.90;99.90;;;;;;5081150;28;20064;-63
2024/03/26 00:40:31;;;;;;;11.05;2.88;;;10.90;99.90;;;;;;5078210;28;20035;-63
2024/03/26 00:42:57;;;;;;;14.17;3.47;;;10.90;99.90;;;;;;5082167;28;20043;-64
2024/03/26 00:45:22;;;;;;;7.60;2.93;;;10.90;99.90;;;;;;5079223;28;20036;-64
2024/03/26 00:47:48;;;;;;;15.90;3.67;;;10.90;99.90;;;;;;5076536;28;20050;-63
2024/03/26 00:50:14;;;;;;;16.63;3.03;;;10.90;99.90;;;;;;5084282;28;20551;-64
2024/03/26 00:52:39;;;;;;;14.03;3.73;;;10.90;99.90;;;;;;5088275;28;20032;-64
2024/03/26 00:55:05;;;;;;;22.17;3.93;;;10.90;99.90;;;;;;5087949;28;20032;-69
2024/03/26 00:57:30;;;;;;;12.77;3.60;;;10.90;99.90;;;;;;5103043;28;20490;-68
2024/03/26 00:59:56;;;;;;;12.00;2.97;;;10.90;99.90;;;;;;5088037;28;20032;-68
2024/03/26 01:02:22;;;;;;;10.03;2.67;;;10.90;99.90;;;;;;5088289;28;20097;-68
2024/03/26 01:04:47;;;;;;;13.53;3.10;;;10.90;99.90;;;;;;5088097;28;20024;-71
2024/03/26 01:07:13;;;;;;;11.50;2.97;;;10.90;99.90;;;;;;5088237;28;20263;-71
2024/03/26 01:09:38;;;;;;;16.37;3.63;;;10.90;99.90;;;;;;5087953;28;20032;-72
2024/03/26 01:12:04;;;;;;;10.60;2.80;;;10.90;99.90;;;;;;5087772;28;20499;-72
2024/03/26 01:14:30;;;;;;;12.03;3.57;;;10.90;99.90;;;;;;5088458;28;20066;-70
2024/03/26 01:16:55;;;;;;;15.60;3.63;;;10.90;99.90;;;;;;5071259;28;20092;-69
2024/03/26 01:19:21;;;;;;;9.93;2.97;;;10.90;99.90;;;;;;5072676;28;20021;-72
2024/03/26 01:21:47;;;;;;;14.23;3.33;;;10.80;99.90;;;;;;5087721;28;20024;-64
2024/03/26 01:24:13;;;;;;;12.52;3.33;;;10.80;99.90;;;;;;5088307;28;20511;-63
2024/03/26 01:26:38;;;;;;;11.80;2.77;;;10.80;99.90;;;;;;5087893;28;20036;-64
2024/03/26 01:29:04;;;;;;;8.50;3.60;;;10.80;99.90;;;;;;5087595;28;20039;-63
2024/03/26 01:31:30;;;;;;;18.13;2.97;;;10.80;99.90;;;;;;5087443;28;20032;-63
2024/03/26 01:33:55;;;;;;;13.17;3.10;;;10.90;99.90;;;;;;5087684;28;20165;-64
2024/03/26 01:36:21;;;;;;;16.63;2.83;;;10.80;99.90;;;;;;5071791;28;20074;-64
2024/03/26 01:38:46;;;;;;;10.87;3.57;;;10.80;99.90;;;;;;5067217;28;20025;-67
2024/03/26 01:41:12;;;;;;;10.43;4.30;;;10.80;99.90;;;;;;5078204;28;20038;-64
2024/03/26 01:43:37;;;;;;;14.77;4.43;;;10.80;99.90;;;;;;5087783;28;20742;-65
2024/03/26 01:46:03;;;;;;;11.90;4.00;;;10.80;99.90;;;;;;5087874;28;20031;-63
2024/03/26 01:48:29;;;;;;;20.27;3.70;;;10.80;99.90;;;;;;5087911;28;20514;-63
2024/03/26 01:50:55;;;;;;;12.53;3.33;;;10.80;99.90;;;;;;5087709;28;20040;-63
2024/03/26 01:53:21;;;;;;;14.35;3.90;;;10.80;99.90;;;;;;5087641;28;20507;-64
2024/03/26 01:55:47;;;;;;;12.30;3.23;;;10.80;99.90;;;;;;5087318;28;20032;-66
2024/03/26 01:58:13;;;;;;;;;;;10.70;99.90;;;;;;5088137;28;20089;-63
2024/03/26 02:00:40;;;;;;;9.75;3.05;;;10.70;99.90;;;;;;5087023;28;19912;-66
2024/03/26 02:03:05;;;;;;;13.00;3.75;;;10.70;99.90;;;;;;5086838;28;20099;-65
2024/03/26 02:05:31;;;;;;;16.97;3.97;;;10.70;99.90;;;;;;5086716;28;20038;-64
2024/03/26 02:07:57;;;;;;;12.73;3.50;;;10.70;99.90;;;;;;5087160;28;20020;-64
2024/03/26 02:10:22;;;;;;;14.37;3.67;;;10.60;99.90;;;;;;5087116;28;20048;-63
2024/03/26 02:12:48;;;;;;;22.57;6.03;;;10.70;99.90;;;;;;5085821;28;20016;-64
2024/03/26 02:15:14;;;;;;;11.43;3.10;;;10.70;99.90;;;;;;5087041;28;20028;-66
2024/03/26 02:17:39;;;;;;;14.60;3.07;;;10.70;99.90;;;;;;5086799;28;20027;-69
2024/03/26 02:20:07;;;;;;;19.33;3.37;;;10.70;99.90;;;;;;5086488;28;20060;-71
2024/03/26 02:22:33;;;;;;;13.50;3.45;;;10.60;99.90;;;;;;5086100;28;20024;-64
2024/03/26 02:24:58;;;;;;;25.47;4.77;;;10.70;99.90;;;;;;5085364;28;20039;-63
2024/03/26 02:27:24;;;;;;;10.23;2.90;;;10.70;99.90;;;;;;5086349;28;20444;-68
2024/03/26 02:29:50;;;;;;;19.23;4.57;;;10.60;99.90;;;;;;5086151;28;20028;-68
2024/03/26 02:32:15;;;;;;;16.83;3.10;;;10.60;99.90;;;;;;5086199;28;20064;-72
2024/03/26 02:34:41;;;;;;;18.47;4.47;;;10.60;99.90;;;;;;5086321;28;20028;-68
2024/03/26 02:37:06;;;;;;;18.00;2.93;;;10.60;99.90;;;;;;5086197;28;20110;-69
2024/03/26 02:39:32;;;;;;;21.07;4.13;;;10.50;99.90;;;;;;5086360;28;20032;-72
2024/03/26 02:41:58;;;;;;;10.40;3.07;;;10.60;99.90;;;;;;5085973;28;20036;-72
2024/03/26 02:44:24;;;;;;;16.25;4.68;;;10.60;99.90;;;;;;5085672;28;20369;-73
2024/03/26 02:46:49;;;;;;;9.47;3.40;;;10.60;99.90;;;;;;5086281;28;20039;-73
2024/03/26 02:49:15;;;;;;;13.17;3.37;;;10.60;99.90;;;;;;5086445;28;20024;-72
2024/03/26 02:51:40;;;;;;;19.77;3.60;;;10.70;99.90;;;;;;5086122;28;20032;-73
2024/03/26 02:54:06;;;;;;;21.57;3.57;;;10.60;99.90;;;;;;5086999;28;20028;-69
2024/03/26 02:56:31;;;;;;;14.17;4.47;;;10.60;99.90;;;;;;5085899;28;20059;-64
2024/03/26 02:58:57;;;;;;;14.60;3.50;;;10.70;99.90;;;;;;5085796;28;20024;-63
2024/03/26 03:01:23;;;;;;;11.90;3.70;;;10.70;99.90;;;;;;5085731;28;20410;-63
2024/03/26 03:03:48;;;;;;;10.25;3.63;;;10.60;99.90;;;;;;5086558;28;20123;-64
2024/03/26 03:06:14;;;;;;;17.67;4.67;;;10.60;99.90;;;;;;5085250;28;20043;-68
2024/03/26 03:08:39;;;;;;;14.80;3.60;;;10.60;99.90;;;;;;5086400;28;20024;-67
2024/03/26 03:11:05;;;;;;;15.10;3.37;;;10.60;99.90;;;;;;5086141;28;20040;-66
2024/03/26 03:13:31;;;;;;;17.87;3.60;;;10.60;99.90;;;;;;5085564;28;20584;-66
2024/03/26 03:15:56;;;;;;;15.73;4.20;;;10.60;99.90;;;;;;5084059;28;20035;-67
2024/03/26 03:18:22;;;;;;;15.50;3.50;;;10.60;99.90;;;;;;5067973;28;20040;-63
2024/03/26 03:20:48;;;;;;;9.18;2.42;;;10.60;99.90;;;;;;5065606;28;20488;-64
2024/03/26 03:23:14;;;;;;;16.40;3.43;;;10.60;99.90;;;;;;5065700;28;20036;-64
2024/03/26 03:25:40;;;;;;;11.90;3.10;;;10.60;99.90;;;;;;5085490;28;20554;-63
2024/03/26 03:28:06;;;;;;;19.05;3.22;;;10.60;99.90;;;;;;5085360;28;20120;-63
2024/03/26 03:30:32;;;;;;;13.32;3.20;;;10.60;99.90;;;;;;5085146;28;20040;-63
2024/03/26 03:32:57;;;;;;;16.57;3.23;;;10.60;99.90;;;;;;5085686;28;20032;-64
2024/03/26 03:35:23;;;;;;;18.50;3.60;;;10.60;99.90;;;;;;5081645;28;20532;-63
2024/03/26 03:37:51;;;;;;;14.20;2.97;;;10.60;99.90;;;;;;5065695;28;20082;-64
2024/03/26 03:40:17;;;;;;;9.77;3.38;;;10.60;99.90;;;;;;5065387;28;20035;-63
2024/03/26 03:42:43;;;;;;;20.20;3.50;;;10.60;99.90;;;;;;5065376;28;20190;-64
2024/03/26 03:45:08;;;;;;;17.50;3.13;;;10.60;99.90;;;;;;5065231;28;20123;-63
2024/03/26 03:47:34;;;;;;;19.77;3.70;;;10.60;99.90;;;;;;5064945;28;20025;-63
2024/03/26 03:50:00;;;;;;;9.87;3.37;;;10.60;99.90;;;;;;5068825;28;20282;-65
2024/03/26 03:52:25;;;;;;;11.17;3.17;;;10.60;99.90;;;;;;5064659;28;20408;-64
2024/03/26 03:54:52;;;;;;;12.87;3.37;;;10.60;99.90;;;;;;5064893;28;20033;-67
2024/03/26 03:57:18;;;;;;;14.45;3.30;;;10.60;99.90;;;;;;5071023;28;20036;-68
2024/03/26 03:59:44;;;;;;;12.75;3.33;;;10.60;99.90;;;;;;5085140;28;20031;-66
2024/03/26 04:02:09;;;;;;;9.60;3.33;;;10.50;99.90;;;;;;5083605;28;20044;-64
2024/03/26 04:04:35;;;;;;;14.37;3.37;;;10.60;99.90;;;;;;5084931;28;20051;-63
2024/03/26 04:07:00;;;;;;;13.67;3.03;;;10.50;99.90;;;;;;5084685;28;20396;-64
2024/03/26 04:09:26;;;;;;;14.83;3.30;;;10.50;99.90;;;;;;5084211;28;20165;-71
2024/03/26 04:11:51;;;;;;;15.53;2.47;;;10.50;99.90;;;;;;5085201;28;20024;-69
2024/03/26 04:14:17;;;;;;;17.93;2.83;;;10.50;99.90;;;;;;5085175;28;20062;-70
2024/03/26 04:16:46;;;;;;;20.93;3.43;;;10.60;99.90;;;;;;5085029;28;20043;-68
2024/03/26 04:19:12;;;;;;;18.48;4.38;;;10.50;99.90;;;;;;5084774;28;20602;-73
2024/03/26 04:21:38;;;;;;;18.55;3.72;;;10.50;99.90;;;;;;5084883;28;20031;-71
2024/03/26 04:24:04;;;;;;;11.83;3.63;;;10.50;99.90;;;;;;5084532;28;20044;-71
2024/03/26 04:26:30;;;;;;;8.90;3.05;;;10.50;99.90;;;;;;5085105;28;20054;-74
2024/03/26 04:28:55;;;;;;;11.73;3.10;;;10.50;99.90;;;;;;5086074;28;20066;-69
2024/03/26 04:31:21;;;;;;;18.27;2.73;;;10.40;99.90;;;;;;5086236;28;20031;-64
2024/03/26 04:33:47;;;;;;;13.70;3.43;;;10.40;99.90;;;;;;5085371;28;20299;-64
2024/03/26 04:36:12;;;;;;;11.67;4.20;;;10.40;99.90;;;;;;5083556;28;20035;-63
2024/03/26 04:38:38;;;;;;;15.77;2.97;;;10.40;99.90;;;;;;5083455;28;20115;-64
2024/03/26 04:41:03;;;;;;;14.53;3.70;;;10.40;99.90;;;;;;5075226;28;20028;-66
2024/03/26 04:43:29;;;;;;;13.27;3.30;;;10.40;99.90;;;;;;5068642;28;20039;-68
2024/03/26 04:45:54;;;;;;;14.10;3.23;;;10.40;99.90;;;;;;5072576;28;20051;-67
2024/03/26 04:48:20;;;;;;;15.90;2.90;;;10.30;99.90;;;;;;5076110;28;20028;-65
2024/03/26 04:50:46;;;;;;;18.93;3.53;;;10.30;99.90;;;;;;5075437;28;20051;-64
2024/03/26 04:53:12;;;;;;;11.93;3.28;;;10.40;99.90;;;;;;5078776;28;20039;-64
2024/03/26 04:55:37;;;;;;;9.20;3.30;;;10.40;99.90;;;;;;5077656;28;20456;-64
2024/03/26 04:58:03;;;;;;;12.90;3.73;;;10.40;99.90;;;;;;5078338;28;20392;-65
2024/03/26 05:00:29;;;;;;;13.10;2.87;;;10.40;99.90;;;;;;5068800;28;20077;-67
2024/03/26 05:02:56;;;;;;;17.67;3.60;;;10.30;99.90;;;;;;5081493;28;20033;-65
2024/03/26 05:05:21;;;;;;;16.85;4.05;;;10.20;99.90;;;;;;5079001;28;20032;-66
2024/03/26 05:07:47;;;;;;;16.87;5.23;;;10.20;99.90;;;;;;5078181;28;20031;-63
2024/03/26 05:10:12;;;;;;;16.13;3.67;;;10.20;99.90;;;;;;5070584;28;20407;-63
2024/03/26 05:12:38;;;;;;;15.27;4.37;;;10.20;99.90;;;;;;5077041;28;20040;-70
2024/03/26 05:15:04;;;;;;;15.50;3.27;;;10.20;99.90;;;;;;5077936;28;20035;-64
2024/03/26 05:17:30;;;;;;;15.85;3.85;;;10.20;99.90;;;;;;5080605;28;20036;-64
2024/03/26 05:19:57;;;;;;;14.97;3.60;;;10.10;99.90;;;;;;5074637;28;20037;-65
2024/03/26 05:22:22;;;;;;;24.08;5.18;;;10.10;99.90;;;;;;5076738;28;20060;-67
2024/03/26 05:24:48;;;;;;;20.93;3.87;;;10.00;99.90;;;;;;5077747;28;20039;-67
2024/03/26 05:27:13;;;;;;;14.00;3.53;;;10.10;99.90;;;;;;5076590;28;20341;-63
2024/03/26 05:29:39;;;;;;;10.77;3.67;;;10.10;99.90;;;;;;5076701;28;20072;-63
2024/03/26 05:32:05;;;;;;;19.80;4.97;;;10.10;99.90;;;;;;5077317;28;20027;-63
2024/03/26 05:34:31;;;;;;;20.20;5.00;;;10.00;99.90;;;;;;5077585;28;20040;-66
2024/03/26 05:36:57;;;;;;;14.13;4.37;;;10.10;99.90;;;;;;5077516;28;20024;-64
2024/03/26 05:39:22;;;;;;;23.75;5.03;;;10.10;99.90;;;;;;5066430;28;20279;-69
2024/03/26 05:41:50;;;;;;;12.43;4.40;;;10.00;99.90;;;;;;5076230;28;20072;-64
2024/03/26 05:44:15;;;;;;;18.60;5.40;;;9.90;99.90;;;;;;5092883;28;20086;-64
2024/03/26 05:46:41;;;;;;;11.50;4.83;;;9.90;99.90;;;;;;5074017;28;20565;-64
2024/03/26 05:49:07;;;;;;;17.38;5.15;;;9.90;99.90;;;;;;5075543;28;20158;-63
2024/03/26 05:51:33;;;;;;;14.48;4.95;;;9.80;99.90;;;;;;5074328;28;20047;-65
2024/03/26 05:53:58;;;;;;;23.73;5.17;;;9.80;99.90;;;;;;5076908;28;20036;-64
2024/03/26 05:56:24;;;;;;;21.27;5.43;;;9.80;99.90;;;;;;5077779;28;20304;-69
2024/03/26 05:58:50;;;;;;;14.50;5.20;;;9.70;99.90;;;;;;5076624;28;20486;-64
2024/03/26 06:01:15;;;;;;;15.17;5.40;;;9.70;99.90;;;;;;5075094;28;20119;-64
2024/03/26 06:03:41;;;;;;;20.43;5.60;;;9.70;99.90;;;;;;5076536;28;20169;-71
2024/03/26 06:06:07;;;;;;;17.08;5.18;;;9.50;99.90;;;;;;5078231;28;20105;-75
2024/03/26 06:08:32;;;;;;;21.33;6.53;;;9.60;99.90;;;;;;5077400;28;20124;-64
2024/03/26 06:10:58;;;;;;;25.83;6.07;;;9.60;99.90;;;;;;5075665;28;20439;-64
2024/03/26 06:13:24;;;;;;;15.03;5.00;;;9.70;99.90;;;;;;5075373;28;20027;-64
2024/03/26 06:15:49;;;;;;;17.67;5.03;;;9.70;99.90;;;;;;5075173;28;20036;-64
2024/03/26 06:18:15;;;;;;;13.17;5.43;;;9.70;99.90;;;;;;5074749;28;20024;-65
2024/03/26 06:20:40;;;;;;;15.10;6.00;;;9.80;99.90;;;;;;5075346;28;20029;-66
2024/03/26 06:23:06;;;;;;;19.13;5.77;;;9.80;99.90;;;;;;5076994;28;20102;-65
2024/03/26 06:25:32;;;;;;;25.80;5.87;;;9.80;99.90;;;;;;5077511;28;20523;-67
2024/03/26 06:27:57;;;;;;;18.17;6.23;;;9.90;99.90;;;;;;5075204;28;20289;-67
2024/03/26 06:30:23;;;;;;;22.10;6.23;;;10.00;99.90;;;;;;5076090;28;20052;-66
2024/03/26 06:32:52;;;;;;;17.13;5.47;;;10.00;99.90;;;;;;5078038;28;20036;-65
2024/03/26 06:35:17;;;;;;;21.42;5.60;;;9.90;99.90;;;;;;5072417;28;20035;-73
2024/03/26 06:37:43;;;;;;;27.40;7.57;;;10.00;99.90;;;;;;5078903;28;20035;-72
2024/03/26 06:40:10;;;;;;;16.75;5.43;;;10.00;99.90;;;;;;5069028;28;20029;-64
2024/03/26 06:42:36;;;;;;;16.13;6.18;;;10.10;99.90;;;;;;5078501;28;20404;-64
2024/03/26 06:45:04;;;;;;;16.55;5.97;;;10.20;99.90;;;;;;5076064;28;20031;-64
2024/03/26 06:47:29;;;;;;;18.38;7.43;;;10.20;99.90;;;;;;5075858;28;20028;-64
2024/03/26 06:49:55;;;;;;;18.20;6.10;;;10.30;99.90;;;;;;5074177;28;20392;-65
2024/03/26 06:52:20;;;;;;;21.47;6.37;;;10.20;99.90;;;;;;5076151;28;20063;-67
2024/03/26 06:54:46;;;;;;;16.80;6.60;;;10.20;99.90;;;;;;5088351;28;20036;-67
2024/03/26 06:57:12;;;;;;;18.97;7.37;;;10.20;99.90;;;;;;5078288;28;20677;-64
2024/03/26 06:59:37;;;;;;;18.03;7.00;;;10.20;99.90;;;;;;5080606;28;20467;-65
2024/03/26 07:02:03;;;;;;;21.53;7.47;;;10.30;99.90;;;;;;5080069;28;20047;-67
2024/03/26 07:04:33;;;;;;;22.90;6.25;;;10.10;99.90;;;;;;5075622;28;20024;-70
2024/03/26 07:06:59;;;;;;;20.27;7.07;;;10.20;99.90;;;;;;5073304;28;20031;-64
2024/03/26 07:09:25;;;;;;;18.60;6.53;;;10.30;99.90;;;;;;5068442;28;20392;-66
2024/03/26 07:11:50;;;;;;;17.60;6.78;;;10.30;99.90;;;;;;5067085;28;20397;-67
2024/03/26 07:14:19;;;;;;;16.97;6.77;;;10.20;99.90;;;;;;5070580;28;20138;-65
2024/03/26 07:16:45;;;;;;;16.38;6.50;;;10.20;99.90;;;;;;5075167;28;20365;-64
2024/03/26 07:19:12;;;;;;;19.90;7.25;;;10.10;99.90;;;;;;5072766;28;20588;-63
2024/03/26 07:21:38;;;;;;;17.80;6.32;;;10.10;99.90;;;;;;5075852;28;20129;-63
2024/03/26 07:24:05;;;;;;;18.70;8.20;;;10.00;99.90;;;;;;5075868;28;20066;-63
2024/03/26 07:26:30;;;;;;;11.98;7.20;;;10.10;99.90;;;;;;5074360;28;20117;-66
2024/03/26 07:28:57;;;;;;;14.70;7.13;;;10.20;99.90;;;;;;5072104;28;20454;-71
2024/03/26 07:31:22;;;;;;;12.10;6.43;;;10.40;99.90;;;;;;5072127;28;20416;-72
2024/03/26 07:33:49;;;;;;;14.27;6.07;;;10.60;99.90;;;;;;5070474;28;20016;-77
2024/03/26 07:36:14;;;;;;;10.90;5.30;;;11.00;99.90;;;;;;5074983;28;20951;-76
2024/03/26 07:38:41;;;;;;;23.13;6.00;;;11.30;99.90;;;;;;5083354;28;20038;-68
2024/03/26 07:41:07;;;;;;;12.13;6.13;;;11.60;99.90;;;;;;5078067;28;20035;-68
2024/03/26 07:43:33;;;;;;;19.47;7.50;;;11.20;99.90;;;;;;5073816;28;20047;-73
2024/03/26 07:45:59;;;;;;;14.80;7.03;;;10.70;99.90;;;;;;5074767;28;20072;-70
2024/03/26 07:48:25;;;;;;;12.80;7.13;;;10.70;99.90;;;;;;5075894;28;20032;-68
2024/03/26 07:50:50;;;;;;;14.95;4.80;;;10.90;99.90;;;;;;5074304;28;20574;-64
2024/03/26 07:53:16;;;;;;;11.53;4.73;;;10.80;99.90;;;;;;5070262;28;20123;-71
2024/03/26 07:55:42;;;;;;;13.67;4.17;;;10.80;99.90;;;;;;5074326;28;20028;-73
2024/03/26 07:58:08;;;;;;;9.57;4.57;;;10.70;99.90;;;;;;5074431;28;20155;-73
2024/03/26 08:00:33;;;;;;;9.90;4.10;;;10.90;99.90;;;;;;5073198;28;20504;-65
2024/03/26 08:02:59;;;;;;;13.37;4.00;;;10.90;99.90;;;;;;5089612;28;20036;-63
2024/03/26 08:05:25;;;;;;;16.60;4.77;;;11.10;99.90;;;;;;5075441;28;20111;-69
2024/03/26 08:07:51;;;;;;;13.25;4.15;;;10.90;99.90;;;;;;5075213;28;20024;-65
2024/03/26 08:10:17;;;;;;;12.30;5.00;;;10.90;99.90;;;;;;5068767;28;20432;-65
2024/03/26 08:12:42;;;;;;;14.25;4.30;;;11.00;99.90;;;;;;5073394;28;20515;-69
2024/03/26 08:15:08;;;;;;;11.23;4.80;;;11.20;99.90;;;;;;5075695;28;20044;-66
2024/03/26 08:17:34;;;;;;;11.25;4.78;;;11.50;99.90;;;;;;5075971;28;20048;-65
2024/03/26 08:20:02;;;;;;;11.23;5.22;;;11.90;99.90;;;;;;5074054;28;20838;-75
2024/03/26 08:22:27;;;;;;;9.98;4.47;;;12.20;99.90;;;;;;5076302;28;20032;-72
2024/03/26 08:24:53;;;;;;;9.83;5.07;;;12.20;99.90;;;;;;5077840;28;20089;-63
2024/03/26 08:27:18;;;;;;;9.77;5.30;;;12.20;99.90;;;;;;5081251;28;20028;-68
2024/03/26 08:29:44;;;;;;;13.43;4.53;;;12.40;99.90;;;;;;5081218;28;20060;-64
2024/03/26 08:32:10;;;;;;;13.47;4.20;;;12.30;99.90;;;;;;5076805;28;20487;-70
2024/03/26 08:34:36;;;;;;;16.40;4.80;;;12.40;99.90;;;;;;5077393;28;20028;-68
2024/03/26 08:37:02;;;;;;;10.95;4.43;;;12.50;99.90;;;;;;5077513;28;20040;-69
2024/03/26 08:39:28;;;;;;;16.17;5.63;;;12.50;99.90;;;;;;5074263;28;20025;-65
2024/03/26 08:41:53;;;;;;;9.27;4.70;;;12.30;99.90;;;;;;5078785;28;20070;-72
2024/03/26 08:44:19;;;;;;;17.13;4.97;;;12.30;99.90;;;;;;5075036;28;20060;-74
2024/03/26 08:46:44;;;;;;;15.87;5.33;;;12.20;99.90;;;;;;5080049;28;20029;-72
2024/03/26 08:49:11;;;;;;;15.75;5.57;;;12.00;99.90;;;;;;5074629;28;20500;-65
2024/03/26 08:51:36;;;;;;;11.50;5.30;;;11.90;99.90;;;;;;5076430;28;20093;-66
2024/03/26 08:54:02;;;;;;;14.93;5.53;;;11.90;99.90;;;;;;5076586;28;20488;-65
2024/03/26 08:56:28;;;;;;;14.67;5.70;;;12.10;99.90;;;;;;5078730;28;20058;-70
2024/03/26 08:58:53;;;;;;;14.50;4.90;;;12.90;99.90;;;;;;5079323;28;20542;-64
2024/03/26 09:01:19;;;;;;;9.93;4.40;;;13.30;99.90;;;;;;5078008;28;20029;-73
2024/03/26 09:03:45;;;;;;;17.55;4.68;;;13.70;99.90;;;;;;5080308;28;20581;-77
2024/03/26 09:06:11;;;;;;;9.55;4.65;;;13.50;99.90;;;;;;5078915;28;20025;-76
2024/03/26 09:08:37;;;;;;;16.93;4.97;;;13.60;99.90;;;;;;5079232;28;20036;-74
2024/03/26 09:11:06;;;;;;;10.68;5.15;;;14.10;99.90;;;;;;5078158;28;20145;-76
2024/03/26 09:13:31;;;;;;;16.27;4.60;;;14.30;99.90;;;;;;5076143;28;20030;-70
2024/03/26 09:15:57;;;;;;;9.43;4.13;;;14.90;98.20;;;;;;5071978;28;20555;-76
2024/03/26 09:18:23;;;;;;;12.13;4.47;;;16.50;93.50;;;;;;5069586;28;20283;-74
2024/03/26 09:20:48;;;;;;;14.03;4.63;;;16.80;91.10;;;;;;5075157;28;20028;-77
2024/03/26 09:23:14;;;;;;;11.00;4.00;;;17.10;90.20;;;;;;5077195;28;20024;-67
2024/03/26 09:25:42;;;;;;;16.27;4.50;;;17.80;88.70;;;;;;5076492;28;20035;-68
2024/03/26 09:28:07;;;;;;;8.50;3.60;;;17.80;86.20;;;;;;5078484;28;20036;-67
2024/03/26 09:30:33;;;;;;;15.17;3.70;;;17.10;84.80;;;;;;5077701;28;20050;-67
2024/03/26 09:32:59;;;;;;;10.60;3.57;;;18.10;82.40;;;;;;5076395;28;20492;-68
2024/03/26 09:35:25;;;;;;;;;;;19.00;78.60;;;;;;5077426;28;20507;-67
2024/03/26 09:37:50;;;;;;;6.80;3.42;;;17.20;79.10;;;;;;5076280;28;19964;-74
2024/03/26 09:40:16;;;;;;;11.33;4.33;;;16.70;78.80;;;;;;5074464;28;20035;-67
2024/03/26 09:42:42;;;;;;;9.23;4.30;;;16.70;80.90;;;;;;5077318;28;20032;-67
2024/03/26 09:45:12;;;;;;;10.57;4.67;;;15.80;81.60;;;;;;5074820;28;20487;-69
2024/03/26 09:47:39;;;;;;;9.57;4.20;;;15.30;85.50;;;;;;5082742;28;20837;-70
2024/03/26 09:50:06;;;;;;;13.55;3.72;;;15.10;85.30;;;;;;5074959;28;20556;-67
2024/03/26 09:52:34;;;;;;;19.00;4.22;;;15.00;87.20;;;;;;5075981;28;20032;-67
2024/03/26 09:55:01;;;;;;;9.10;3.92;;;14.80;90.20;;;;;;5073095;28;20047;-70
2024/03/26 09:57:27;;;;;;;9.90;4.40;;;14.90;92.60;;;;;;5077691;28;20134;-71
2024/03/26 09:59:55;;;;;;;14.60;4.33;;;14.90;92.50;;;;;;5073627;28;20111;-73
2024/03/26 10:02:21;;;;;;;13.20;4.47;;;14.80;93.10;;;;;;5072797;28;20135;-67
2024/03/26 10:04:47;;;;;;;13.05;4.90;;;14.50;94.10;;;;;;5077390;28;20021;-66
2024/03/26 10:07:13;;;;;;;11.80;4.47;;;14.30;94.60;;;;;;5075967;28;20040;-68
2024/03/26 10:09:39;;;;;;;17.58;4.57;;;14.10;96.40;;;;;;5075801;28;20094;-67
2024/03/26 10:12:08;;;;;;;11.80;5.37;;;14.10;94.90;;;;;;5076973;28;20064;-66
2024/03/26 10:14:34;;;;;;;14.18;4.50;;;14.40;95.90;;;;;;5075920;28;20016;-66
2024/03/26 10:16:59;;;;;;;13.33;4.30;;;14.80;96.00;;;;;;5076710;28;20105;-67
2024/03/26 10:19:25;;;;;;;12.53;4.70;;;15.10;95.10;;;;;;5076636;28;20028;-72
2024/03/26 10:21:52;;;;;;;11.50;4.17;;;15.00;95.40;;;;;;5083030;28;20032;-66
2024/03/26 10:24:18;;;;;;;15.93;4.68;;;14.90;95.40;;;;;;5080357;28;20032;-65
2024/03/26 10:26:44;;;;;;;18.10;4.70;;;14.80;95.00;;;;;;5081039;28;20104;-65
2024/03/26 10:29:09;;;;;;;19.00;5.27;;;15.00;94.70;;;;;;5084715;28;20071;-66
2024/03/26 10:31:38;;;;;;;14.37;5.00;;;14.80;97.60;;;;;;5082975;28;20124;-65
2024/03/26 10:34:04;;;;;;;14.77;5.38;;;14.70;97.60;;;;;;5072385;28;20418;-65
2024/03/26 10:36:33;;;;;;;20.65;5.30;;;15.10;96.80;;;;;;5070214;28;20124;-66
2024/03/26 10:38:59;;;;;;;13.82;5.32;;;15.50;94.50;;;;;;5076557;28;20039;-65
2024/03/26 10:41:33;;;;;;;14.02;4.25;;;16.30;93.30;;;;;;5076793;28;20067;-65
2024/03/26 10:43:59;;;;;;;11.73;4.30;;;16.40;93.00;;;;;;5081335;28;20028;-70
2024/03/26 10:46:30;;;;;;;12.15;4.07;;;15.90;93.40;;;;;;5081954;28;20020;-68
2024/03/26 10:48:58;;;;;;;13.43;4.90;;;15.40;94.50;;;;;;5083950;28;20112;-68
2024/03/26 10:51:25;;;;;;;13.57;4.95;;;15.30;95.50;;;;;;5080505;28;20040;-73
2024/03/26 10:53:56;;;;;;;13.68;5.00;;;15.20;94.50;;;;;;5078132;28;20032;-73
2024/03/26 10:56:22;;;;;;;16.63;4.75;;;15.20;93.90;;;;;;5077159;28;20043;-67
2024/03/26 10:58:48;;;;;;;9.98;3.92;;;15.10;94.30;;;;;;5075017;28;20081;-65
2024/03/26 11:01:14;;;;;;;14.45;4.90;;;15.10;93.80;;;;;;5077828;28;20066;-65
2024/03/26 11:03:41;;;;;;;10.35;4.38;;;15.10;93.50;;;;;;5071801;28;20111;-66
2024/03/26 11:06:07;;;;;;;15.93;5.00;;;15.10;93.70;;;;;;5073322;28;20527;-67
2024/03/26 11:08:40;;;;;;;12.73;4.68;;;15.00;93.00;;;;;;5069696;28;20596;-66
2024/03/26 11:11:06;;;;;;;10.15;5.13;;;15.10;94.10;;;;;;5067290;28;20036;-66
2024/03/26 11:13:36;;;;;;;16.83;5.40;;;15.20;93.20;;;;;;5074336;28;20039;-66
2024/03/26 11:16:11;;;;;;;22.92;5.07;;;15.40;94.40;;;;;;5076527;28;20107;-67
2024/03/26 11:18:39;;;;;;;15.75;4.63;;;15.70;95.20;;;;;;5072985;28;20044;-66
2024/03/26 11:21:09;;;;;;;8.95;4.07;;;15.90;92.20;;;;;;5073897;28;20537;-68
2024/03/26 11:23:36;;;;;;;10.48;5.03;;;16.20;92.00;;;;;;5073258;28;20059;-68
2024/03/26 11:26:03;;;;;;;12.85;4.97;;;16.20;92.00;;;;;;5074510;28;20031;-64
2024/03/26 11:28:34;;;;;;;14.10;4.75;;;16.00;92.40;;;;;;5076884;28;20377;-64
2024/03/26 11:31:01;;;;;;;11.27;4.53;;;16.00;92.10;;;;;;5076126;28;20327;-65
2024/03/26 11:33:32;;;;;;;11.65;5.10;;;15.80;91.80;;;;;;5078013;28;20032;-65
2024/03/26 11:35:58;;;;;;;18.60;4.88;;;15.60;92.10;;;;;;5078275;28;20041;-66
2024/03/26 11:38:24;;;;;;;11.70;4.60;;;15.40;93.10;;;;;;5075355;28;20064;-65
2024/03/26 11:40:51;;;;;;;;;;;15.40;93.20;;;;;;5073243;28;20043;-65
2024/03/26 11:43:17;;;;;;;16.05;6.22;;;15.30;93.50;;;;;;5069488;28;20441;-64
2024/03/26 11:45:42;;;;;;;30.00;8.20;;;15.30;93.10;;;;;;5073781;28;20025;-65
2024/03/26 11:48:08;;;;;;;19.73;5.20;;;15.30;94.50;;;;;;5074741;28;20035;-65
2024/03/26 11:50:35;;;;;;;24.73;6.65;;;15.40;94.60;;;;;;5080298;28;20526;-68
2024/03/26 11:53:01;;;;;;;20.33;6.97;;;15.20;94.20;;;;;;5077424;28;20052;-65
2024/03/26 11:55:27;;;;;;;14.82;5.53;;;15.30;94.30;;;;;;5079166;28;20034;-65
2024/03/26 11:57:54;;;;;;;17.52;5.45;;;15.50;95.00;;;;;;5084671;28;20073;-65
2024/03/26 12:00:20;;;;;;;15.05;5.97;;;15.80;94.60;;;;;;5083147;28;20036;-64
2024/03/26 12:02:46;;;;;;;19.23;5.97;;;15.80;93.80;;;;;;5082814;28;20020;-76
2024/03/26 12:05:11;;;;;;;16.47;6.17;;;15.70;94.40;;;;;;5083169;28;20042;-65
2024/03/26 12:07:39;;;;;;;17.10;5.23;;;15.80;93.50;;;;;;5082922;28;20115;-73
2024/03/26 12:10:05;;;;;;;15.23;5.57;;;15.50;95.70;;;;;;5084453;28;20043;-73
2024/03/26 12:12:38;;;;;;;22.80;6.65;;;15.50;93.60;;;;;;5082030;28;20069;-67
2024/03/26 12:15:08;;;;;;;17.50;5.95;;;15.40;95.00;;;;;;5081424;28;20040;-71
2024/03/26 12:17:34;;;;;;;11.45;5.32;;;15.60;94.70;;;;;;5081505;28;20112;-69
2024/03/26 12:20:00;;;;;;;18.88;6.03;;;15.70;92.70;;;;;;5081364;28;20042;-78
2024/03/26 12:22:27;;;;;;;19.70;5.68;;;15.90;92.60;;;;;;5082604;28;20032;-77
2024/03/26 12:24:53;;;;;;;21.13;5.13;;;15.50;92.20;;;;;;5081214;28;20028;-78
2024/03/26 12:27:19;;;;;;;20.70;6.40;;;15.20;94.40;;;;;;5070695;28;20067;-73
2024/03/26 12:29:45;;;;;;;22.17;6.78;;;15.20;94.40;;;;;;5086794;28;20093;-72
2024/03/26 12:32:13;;;;;;;18.20;5.60;;;15.10;95.10;;;;;;5077521;28;20036;-68